createdAt,value
2023-03-06T00:00:28.462Z,-1.11
2023-03-06T00:02:55.820Z,-1.14
2023-03-06T00:05:23.003Z,-1.16
2023-03-06T00:07:49.959Z,-1.17
2023-03-06T00:10:20.107Z,-1.17
2023-03-06T00:12:47.279Z,-1.18
2023-03-06T00:15:14.465Z,-1.19
2023-03-06T00:17:41.478Z,-1.20
2023-03-06T00:20:10.342Z,-1.20
2023-03-06T00:22:37.249Z,-1.20
2023-03-06T00:25:05.043Z,-1.23
2023-03-06T00:27:32.838Z,-1.25
2023-03-06T00:30:01.672Z,-1.29
2023-03-06T00:32:29.139Z,-1.31
2023-03-06T00:34:56.598Z,-1.32
2023-03-06T00:37:24.863Z,-1.32
2023-03-06T00:39:52.304Z,-1.35
2023-03-06T00:42:19.923Z,-1.36
2023-03-06T00:44:47.225Z,-1.42
2023-03-06T00:47:17.268Z,-1.43
2023-03-06T00:49:45.234Z,-1.47
2023-03-06T00:52:13.105Z,-1.49
2023-03-06T00:54:40.721Z,-1.49
2023-03-06T00:57:08.010Z,-1.50
2023-03-06T00:59:35.078Z,-1.52
2023-03-06T01:02:02.931Z,-1.56
2023-03-06T01:04:29.929Z,-1.59
2023-03-06T01:06:56.786Z,-1.61
2023-03-06T01:09:24.748Z,-1.60
2023-03-06T01:11:54.134Z,-1.61
2023-03-06T01:14:21.256Z,-1.62
2023-03-06T01:16:48.220Z,-1.63
2023-03-06T01:19:17.900Z,-1.61
2023-03-06T01:21:45.317Z,-1.62
2023-03-06T01:24:12.175Z,-1.61
2023-03-06T01:26:39.017Z,-1.59
2023-03-06T01:29:06.463Z,-1.59
2023-03-06T01:31:33.631Z,-1.63
2023-03-06T01:34:00.555Z,-1.67
2023-03-06T01:36:27.331Z,-1.65
2023-03-06T01:38:54.164Z,-1.67
2023-03-06T01:41:21.559Z,-1.68
2023-03-06T01:43:48.861Z,-1.67
2023-03-06T01:46:43.696Z,-1.69
2023-03-06T01:49:26.311Z,-1.72
2023-03-06T01:51:58.662Z,-1.71
2023-03-06T01:54:34.237Z,-1.70
2023-03-06T01:57:05.333Z,-1.72
2023-03-06T01:59:34.840Z,-1.73
2023-03-06T02:02:03.586Z,-1.76
2023-03-06T02:04:31.785Z,-1.78
2023-03-06T02:07:01.219Z,-1.80
2023-03-06T02:09:32.852Z,-1.84
2023-03-06T02:12:01.678Z,-1.86
2023-03-06T02:14:30.071Z,-1.89
2023-03-06T02:16:56.996Z,-1.86
2023-03-06T02:19:36.918Z,-1.83
2023-03-06T02:22:03.907Z,-1.86
2023-03-06T02:24:51.596Z,-1.90
2023-03-06T02:27:19.585Z,-1.98
2023-03-06T02:29:46.725Z,-2.02
2023-03-06T02:32:13.717Z,-2.07
2023-03-06T02:34:40.429Z,-2.14
2023-03-06T02:37:09.624Z,-2.19
2023-03-06T02:39:42.275Z,-2.24
2023-03-06T02:42:09.529Z,-2.29
2023-03-06T02:44:36.774Z,-2.30
2023-03-06T02:47:04.982Z,-2.31
2023-03-06T02:49:31.771Z,-2.28
2023-03-06T02:51:58.552Z,-2.30
2023-03-06T02:54:25.374Z,-2.28
2023-03-06T02:56:52.178Z,-2.20
2023-03-06T02:59:18.946Z,-2.20
2023-03-06T03:01:47.828Z,-2.20
2023-03-06T03:04:14.734Z,-2.21
2023-03-06T03:06:41.608Z,-2.22
2023-03-06T03:09:08.836Z,-2.28
2023-03-06T03:11:35.718Z,-2.32
2023-03-06T03:14:02.545Z,-2.34
2023-03-06T03:16:30.165Z,-2.37
2023-03-06T03:18:58.628Z,-2.38
2023-03-06T03:21:26.232Z,-2.37
2023-03-06T03:23:54.722Z,-2.35
2023-03-06T03:26:22.655Z,-2.35
2023-03-06T03:29:05.196Z,-2.35
2023-03-06T03:31:32.604Z,-2.36
2023-03-06T03:34:00.794Z,-2.37
2023-03-06T03:36:29.740Z,-2.37
2023-03-06T03:38:57.761Z,-2.39
2023-03-06T03:41:24.824Z,-2.43
2023-03-06T03:43:51.918Z,-2.46
2023-03-06T03:46:21.512Z,-2.48
2023-03-06T03:48:49.716Z,-2.47
2023-03-06T03:51:17.098Z,-2.47
2023-03-06T03:53:49.363Z,-2.46
2023-03-06T03:56:19.989Z,-2.48
2023-03-06T03:58:54.959Z,-2.51
2023-03-06T04:01:22.851Z,-2.56
2023-03-06T04:03:49.866Z,-2.60
2023-03-06T04:06:17.675Z,-2.62
2023-03-06T04:08:45.023Z,-2.60
2023-03-06T04:11:11.930Z,-2.60
2023-03-06T04:13:39.483Z,-2.59
2023-03-06T04:16:06.877Z,-2.59
2023-03-06T04:18:35.885Z,-2.63
2023-03-06T04:21:05.228Z,-2.64
2023-03-06T04:23:32.921Z,-2.67
2023-03-06T04:26:00.240Z,-2.72
2023-03-06T04:28:27.700Z,-2.74
2023-03-06T04:30:54.525Z,-2.73
2023-03-06T04:33:21.493Z,-2.76
2023-03-06T04:35:48.796Z,-2.76
2023-03-06T04:38:21.322Z,-2.75
2023-03-06T04:40:49.824Z,-2.75
2023-03-06T04:43:17.034Z,-2.76
2023-03-06T04:45:43.961Z,-2.77
2023-03-06T04:48:14.830Z,-2.76
2023-03-06T04:50:42.110Z,-2.76
2023-03-06T04:53:09.622Z,-2.75
2023-03-06T04:55:36.711Z,-2.75
2023-03-06T04:58:03.693Z,-2.74
2023-03-06T05:00:31.721Z,-2.77
2023-03-06T05:03:00.743Z,-2.79
2023-03-06T05:05:28.370Z,-2.82
2023-03-06T05:07:55.690Z,-2.83
2023-03-06T05:10:22.691Z,-2.81
2023-03-06T05:12:49.561Z,-2.83
2023-03-06T05:15:16.902Z,-2.83
2023-03-06T05:17:44.395Z,-2.82
2023-03-06T05:20:12.224Z,-2.79
2023-03-06T05:22:39.299Z,-2.73
2023-03-06T05:25:06.939Z,-2.64
2023-03-06T05:27:34.177Z,-2.53
2023-03-06T05:30:01.243Z,-2.51
2023-03-06T05:32:28.662Z,-2.45
2023-03-06T05:34:57.028Z,-2.37
2023-03-06T05:37:24.497Z,-2.34
2023-03-06T05:39:52.144Z,-2.23
2023-03-06T05:42:19.629Z,-2.21
2023-03-06T05:44:46.746Z,-2.15
2023-03-06T05:47:15.222Z,-2.06
2023-03-06T05:49:42.241Z,-2.00
2023-03-06T05:52:11.014Z,-1.69
2023-03-06T05:54:37.912Z,-1.13
2023-03-06T05:57:05.869Z,-0.53
2023-03-06T05:59:33.367Z,0.08
2023-03-06T06:02:01.350Z,0.55
2023-03-06T06:04:28.795Z,0.91
2023-03-06T06:06:58.063Z,1.13
2023-03-06T06:09:26.328Z,1.48
2023-03-06T06:11:59.326Z,1.83
2023-03-06T06:14:26.261Z,2.03
2023-03-06T06:16:53.513Z,2.21
2023-03-06T06:19:21.103Z,2.25
2023-03-06T06:21:50.524Z,2.53
2023-03-06T06:24:19.599Z,2.91
2023-03-06T06:26:47.056Z,3.46
2023-03-06T06:29:14.077Z,3.49
2023-03-06T06:31:41.567Z,3.34
2023-03-06T06:34:11.165Z,3.16
2023-03-06T06:36:39.007Z,3.10
2023-03-06T06:39:07.412Z,3.04
2023-03-06T06:41:54.903Z,2.97
2023-03-06T06:44:22.199Z,3.11
2023-03-06T06:47:21.325Z,3.57
2023-03-06T06:49:37.270Z,4.14
2023-03-06T06:52:05.525Z,4.09
2023-03-06T06:54:36.296Z,3.86
2023-03-06T06:57:03.140Z,3.60
2023-03-06T06:59:30.015Z,3.39
2023-03-06T07:01:56.830Z,3.20
2023-03-06T07:04:23.652Z,3.12
2023-03-06T07:06:50.467Z,3.09
2023-03-06T07:09:17.317Z,3.08
2023-03-06T07:11:44.148Z,3.04
2023-03-06T07:14:10.933Z,3.02
2023-03-06T07:16:37.874Z,3.01
2023-03-06T07:19:04.818Z,3.05
2023-03-06T07:21:31.889Z,3.06
2023-03-06T07:23:59.133Z,3.08
2023-03-06T07:26:27.672Z,3.11
2023-03-06T07:28:55.062Z,3.03
2023-03-06T07:31:25.156Z,3.04
2023-03-06T07:33:53.347Z,3.10
2023-03-06T07:36:22.001Z,3.11
2023-03-06T07:38:48.852Z,3.14
2023-03-06T07:41:16.587Z,3.20
2023-03-06T07:43:44.743Z,3.24
2023-03-06T07:46:14.295Z,3.33
2023-03-06T07:48:41.579Z,3.41
2023-03-06T07:51:15.070Z,3.48
2023-03-06T07:53:42.252Z,3.52
2023-03-06T07:56:11.115Z,3.60
2023-03-06T07:58:42.911Z,3.63
2023-03-06T08:01:13.200Z,3.75
2023-03-06T08:03:40.107Z,3.87
2023-03-06T08:06:19.414Z,3.95
2023-03-06T08:08:47.802Z,4.07
2023-03-06T08:11:16.244Z,4.21
2023-03-06T08:13:43.676Z,4.33
2023-03-06T08:16:11.111Z,4.46
2023-03-06T08:18:41.292Z,4.56
2023-03-06T08:21:13.604Z,4.69
2023-03-06T08:23:41.245Z,4.77
2023-03-06T08:26:14.089Z,4.92
2023-03-06T08:28:41.336Z,5.05
2023-03-06T08:31:15.752Z,5.18
2023-03-06T08:33:43.016Z,5.22
2023-03-06T08:36:10.490Z,5.41
2023-03-06T08:38:37.209Z,5.48
2023-03-06T08:41:04.192Z,5.57
2023-03-06T08:43:31.100Z,5.69
2023-03-06T08:45:58.813Z,5.77
2023-03-06T08:48:25.712Z,5.89
2023-03-06T08:50:53.123Z,6.04
2023-03-06T08:53:21.533Z,6.17
2023-03-06T08:55:48.590Z,6.33
2023-03-06T08:58:15.350Z,6.46
2023-03-06T09:00:42.334Z,6.57
2023-03-06T09:03:09.130Z,6.71
2023-03-06T09:05:36.486Z,6.76
2023-03-06T09:08:03.398Z,6.86
2023-03-06T09:10:30.202Z,6.95
2023-03-06T09:12:57.009Z,7.03
2023-03-06T09:15:24.952Z,7.10
2023-03-06T09:17:52.435Z,7.18
2023-03-06T09:20:19.374Z,7.29
2023-03-06T09:22:46.278Z,7.38
2023-03-06T09:25:14.427Z,7.43
2023-03-06T09:27:41.479Z,7.53
2023-03-06T09:30:09.330Z,7.63
2023-03-06T09:32:36.109Z,7.70
2023-03-06T09:35:03.266Z,7.84
2023-03-06T09:37:30.495Z,7.91
2023-03-06T09:39:57.852Z,8.06
2023-03-06T09:42:25.285Z,8.17
2023-03-06T09:45:00.581Z,8.23
2023-03-06T09:47:42.544Z,8.30
2023-03-06T09:50:24.344Z,8.36
2023-03-06T09:53:32.494Z,8.46
2023-03-06T09:56:03.934Z,8.53
2023-03-06T09:58:37.671Z,8.66
2023-03-06T10:01:17.544Z,8.74
2023-03-06T10:04:11.489Z,8.89
2023-03-06T10:06:50.356Z,9.05
2023-03-06T10:09:38.278Z,9.21
2023-03-06T10:12:16.437Z,9.33
2023-03-06T10:14:49.013Z,9.51
2023-03-06T10:17:19.312Z,9.65
2023-03-06T10:19:47.719Z,9.76
2023-03-06T10:22:26.675Z,9.91
2023-03-06T10:25:26.193Z,10.08
2023-03-06T10:28:05.788Z,10.29
2023-03-06T10:30:41.643Z,10.46
2023-03-06T10:33:46.002Z,10.65
2023-03-06T10:36:17.791Z,10.80
2023-03-06T10:38:46.207Z,10.96
2023-03-06T10:41:12.900Z,11.11
2023-03-06T10:43:44.899Z,11.28
2023-03-06T10:46:26.037Z,11.39
2023-03-06T10:48:59.032Z,11.54
2023-03-06T10:51:27.409Z,11.59
2023-03-06T10:53:58.594Z,11.71
2023-03-06T10:56:37.599Z,11.87
2023-03-06T10:59:14.464Z,11.99
2023-03-06T11:01:43.796Z,12.10
2023-03-06T11:04:23.078Z,12.20
2023-03-06T11:07:19.456Z,12.35
2023-03-06T11:10:19.423Z,12.48
2023-03-06T11:13:07.759Z,12.56
2023-03-06T11:15:34.934Z,12.62
2023-03-06T11:18:04.793Z,12.75
2023-03-06T11:20:50.085Z,12.87
2023-03-06T11:23:20.963Z,12.97
2023-03-06T11:25:54.011Z,13.10
2023-03-06T11:28:59.194Z,13.26
2023-03-06T11:31:31.760Z,13.47
2023-03-06T11:34:11.988Z,13.58
2023-03-06T11:36:42.144Z,13.69
2023-03-06T11:39:48.086Z,13.80
2023-03-06T11:42:48.925Z,13.96
2023-03-06T11:45:37.245Z,14.13
2023-03-06T11:48:17.597Z,14.36
2023-03-06T11:50:46.052Z,14.55
2023-03-06T11:53:16.680Z,14.70
2023-03-06T11:56:14.462Z,14.84
2023-03-06T11:59:22.705Z,14.95
2023-03-06T12:02:19.973Z,15.03
2023-03-06T12:05:09.289Z,15.11
2023-03-06T12:07:55.898Z,15.22
2023-03-06T12:10:51.532Z,15.34
2023-03-06T12:13:33.326Z,15.51
2023-03-06T12:16:26.961Z,15.63
2023-03-06T12:19:09.693Z,15.71
2023-03-06T12:22:17.860Z,15.73
2023-03-06T12:25:17.430Z,15.92
2023-03-06T12:28:05.379Z,15.95
2023-03-06T12:30:44.480Z,16.07
2023-03-06T12:33:33.972Z,16.31
2023-03-06T12:36:16.290Z,16.67
2023-03-06T12:39:16.563Z,16.94
2023-03-06T12:41:50.588Z,17.24
2023-03-06T12:44:29.194Z,17.43
2023-03-06T12:47:05.063Z,17.56
2023-03-06T12:49:38.635Z,17.67
2023-03-06T12:52:07.819Z,17.80
2023-03-06T12:54:40.927Z,17.89
2023-03-06T12:57:09.438Z,17.93
2023-03-06T12:59:39.076Z,17.95
2023-03-06T13:02:08.528Z,17.91
2023-03-06T13:04:47.224Z,17.91
2023-03-06T13:07:36.690Z,17.88
2023-03-06T13:10:14.560Z,18.04
2023-03-06T13:12:49.992Z,18.20
2023-03-06T13:15:35.573Z,18.34
2023-03-06T13:18:23.069Z,18.51
2023-03-06T13:20:50.869Z,18.71
2023-03-06T13:23:29.796Z,19.03
2023-03-06T13:25:59.840Z,19.17
2023-03-06T13:28:49.411Z,19.15
2023-03-06T13:31:29.507Z,19.02
2023-03-06T13:34:21.030Z,18.87
2023-03-06T13:36:47.882Z,18.61
2023-03-06T13:39:15.922Z,18.48
2023-03-06T13:41:42.766Z,18.29
2023-03-06T13:44:24.715Z,18.06
2023-03-06T13:46:59.600Z,17.99
2023-03-06T13:49:27.251Z,17.82
2023-03-06T13:51:54.159Z,17.64
2023-03-06T13:54:20.950Z,17.45
2023-03-06T13:56:59.456Z,17.39
2023-03-06T14:00:08.344Z,17.41
2023-03-06T14:03:09.085Z,17.50
2023-03-06T14:05:43.918Z,17.47
2023-03-06T14:08:32.423Z,17.29
2023-03-06T14:11:19.589Z,17.26
2023-03-06T14:13:50.693Z,17.31
2023-03-06T14:16:21.343Z,17.31
2023-03-06T14:18:50.647Z,17.38
2023-03-06T14:21:31.066Z,17.52
2023-03-06T14:24:01.086Z,17.73
2023-03-06T14:26:32.803Z,17.76
2023-03-06T14:29:02.398Z,17.73
2023-03-06T14:31:34.615Z,17.67
2023-03-06T14:34:06.941Z,17.59
2023-03-06T14:36:45.933Z,17.36
2023-03-06T14:39:27.157Z,17.11
2023-03-06T14:42:19.110Z,16.78
2023-03-06T14:44:47.591Z,16.52
2023-03-06T14:47:27.941Z,16.34
2023-03-06T14:50:21.718Z,16.11
2023-03-06T14:52:54.312Z,15.96
2023-03-06T14:55:24.411Z,15.75
2023-03-06T14:57:58.227Z,15.55
2023-03-06T15:00:32.433Z,15.32
2023-03-06T15:03:00.115Z,15.07
2023-03-06T15:05:29.713Z,14.92
2023-03-06T15:08:03.467Z,14.84
2023-03-06T15:10:32.805Z,14.83
2023-03-06T15:13:18.650Z,14.80
2023-03-06T15:16:05.410Z,14.74
2023-03-06T15:18:35.420Z,14.60
2023-03-06T15:21:21.668Z,14.41
2023-03-06T15:23:52.643Z,14.28
2023-03-06T15:26:22.092Z,14.15
2023-03-06T15:29:09.593Z,14.01
2023-03-06T15:31:38.930Z,13.91
2023-03-06T15:34:11.476Z,13.82
2023-03-06T15:36:58.717Z,13.71
2023-03-06T15:39:40.065Z,13.65
2023-03-06T15:42:18.337Z,13.54
2023-03-06T15:44:51.312Z,13.51
2023-03-06T15:47:18.235Z,13.50
2023-03-06T15:49:45.767Z,13.51
2023-03-06T15:52:12.574Z,13.50
2023-03-06T15:54:39.394Z,13.45
2023-03-06T15:57:12.245Z,13.38
2023-03-06T15:59:44.699Z,13.29
2023-03-06T16:02:19.091Z,13.17
2023-03-06T16:04:46.797Z,13.09
2023-03-06T16:07:14.288Z,13.01
2023-03-06T16:09:42.016Z,12.92
2023-03-06T16:12:30.057Z,12.82
2023-03-06T16:14:58.259Z,12.77
2023-03-06T16:17:25.069Z,12.74
2023-03-06T16:19:51.878Z,12.72
2023-03-06T16:22:18.857Z,12.69
2023-03-06T16:24:45.615Z,12.67
2023-03-06T16:27:18.737Z,12.62
2023-03-06T16:29:45.608Z,12.56
2023-03-06T16:32:12.627Z,12.45
2023-03-06T16:34:39.450Z,12.32
2023-03-06T16:37:06.453Z,12.21
2023-03-06T16:39:33.583Z,12.14
2023-03-06T16:42:00.391Z,12.05
2023-03-06T16:44:27.244Z,11.96
2023-03-06T16:46:54.092Z,11.77
2023-03-06T16:49:23.735Z,11.61
2023-03-06T16:51:51.466Z,11.46
2023-03-06T16:54:18.416Z,11.30
2023-03-06T16:56:45.643Z,11.20
2023-03-06T16:59:12.744Z,11.10
2023-03-06T17:01:42.669Z,11.00
2023-03-06T17:04:09.932Z,10.85
2023-03-06T17:06:36.906Z,10.68
2023-03-06T17:09:04.653Z,10.53
2023-03-06T17:11:31.663Z,10.38
2023-03-06T17:13:58.577Z,10.23
2023-03-06T17:16:25.724Z,10.12
2023-03-06T17:18:52.731Z,10.03
2023-03-06T17:21:19.623Z,9.99
2023-03-06T17:23:46.780Z,9.93
2023-03-06T17:26:15.976Z,9.81
2023-03-06T17:28:43.417Z,9.69
2023-03-06T17:31:21.807Z,9.59
2023-03-06T17:33:48.697Z,9.48
2023-03-06T17:36:16.669Z,9.40
2023-03-06T17:38:43.893Z,9.33
2023-03-06T17:41:11.791Z,9.26
2023-03-06T17:43:39.382Z,9.14
2023-03-06T17:46:12.228Z,9.04
2023-03-06T17:48:39.545Z,8.92
2023-03-06T17:51:07.543Z,8.85
2023-03-06T17:53:34.538Z,8.76
2023-03-06T17:56:04.520Z,8.70
2023-03-06T17:58:31.865Z,8.60
2023-03-06T18:00:59.117Z,8.47
2023-03-06T18:03:26.081Z,8.35
2023-03-06T18:06:00.706Z,8.26
2023-03-06T18:08:27.510Z,8.20
2023-03-06T18:11:00.116Z,8.18
2023-03-06T18:13:26.949Z,8.11
2023-03-06T18:15:53.929Z,8.06
2023-03-06T18:18:20.749Z,8.01
2023-03-06T18:20:47.648Z,7.97
2023-03-06T18:23:14.479Z,7.92
2023-03-06T18:25:41.567Z,7.85
2023-03-06T18:28:08.495Z,7.78
2023-03-06T18:30:37.406Z,7.75
2023-03-06T18:33:04.757Z,7.75
2023-03-06T18:35:31.655Z,7.81
2023-03-06T18:37:58.414Z,7.79
2023-03-06T18:40:25.172Z,7.77
2023-03-06T18:42:53.177Z,7.71
2023-03-06T18:45:20.450Z,7.64
2023-03-06T18:47:47.212Z,7.71
2023-03-06T18:50:17.566Z,7.78
2023-03-06T18:52:44.790Z,7.83
2023-03-06T18:55:13.606Z,7.90
2023-03-06T18:57:41.068Z,8.01
2023-03-06T19:00:08.788Z,8.08
2023-03-06T19:02:35.665Z,8.18
2023-03-06T19:05:02.712Z,8.28
2023-03-06T19:07:29.600Z,8.36
2023-03-06T19:09:56.382Z,8.38
2023-03-06T19:12:23.620Z,8.44
2023-03-06T19:14:50.595Z,8.47
2023-03-06T19:17:17.486Z,8.52
2023-03-06T19:19:44.398Z,8.56
2023-03-06T19:22:11.193Z,8.60
2023-03-06T19:24:38.177Z,8.62
2023-03-06T19:27:05.215Z,8.61
2023-03-06T19:29:32.576Z,8.57
2023-03-06T19:31:59.530Z,8.57
2023-03-06T19:34:26.512Z,8.53
2023-03-06T19:36:53.337Z,8.55
2023-03-06T19:39:20.386Z,8.56
2023-03-06T19:41:48.028Z,8.56
2023-03-06T19:44:16.307Z,8.55
2023-03-06T19:46:43.656Z,8.55
2023-03-06T19:49:16.922Z,8.57
2023-03-06T19:51:44.395Z,8.53
2023-03-06T19:54:12.753Z,8.48
2023-03-06T19:56:40.087Z,8.28
2023-03-06T19:59:07.278Z,8.19
2023-03-06T20:01:34.539Z,8.12
2023-03-06T20:04:01.399Z,8.11
2023-03-06T20:06:31.296Z,8.08
2023-03-06T20:08:58.495Z,8.01
2023-03-06T20:11:29.886Z,7.89
2023-03-06T20:13:58.647Z,7.68
2023-03-06T20:16:28.073Z,7.58
2023-03-06T20:18:58.137Z,7.43
2023-03-06T20:21:26.222Z,7.37
2023-03-06T20:23:54.494Z,7.34
2023-03-06T20:26:21.548Z,7.30
2023-03-06T20:28:48.889Z,7.22
2023-03-06T20:31:19.232Z,7.07
2023-03-06T20:33:47.809Z,7.02
2023-03-06T20:36:17.206Z,6.94
2023-03-06T20:38:44.638Z,6.86
2023-03-06T20:41:15.644Z,6.76
2023-03-06T20:43:42.968Z,6.64
2023-03-06T20:46:11.747Z,6.64
2023-03-06T20:48:38.981Z,6.69
2023-03-06T20:51:28.758Z,6.61
2023-03-06T20:53:56.483Z,6.66
2023-03-06T20:56:25.805Z,6.60
2023-03-06T20:58:53.391Z,6.59
2023-03-06T21:01:28.907Z,6.51
2023-03-06T21:03:59.474Z,6.44
2023-03-06T21:06:28.300Z,6.34
2023-03-06T21:08:56.723Z,6.23
2023-03-06T21:11:24.200Z,6.10
2023-03-06T21:13:52.673Z,6.09
2023-03-06T21:16:21.123Z,6.05
2023-03-06T21:18:48.370Z,6.00
2023-03-06T21:21:21.457Z,5.97
2023-03-06T21:23:49.207Z,6.08
2023-03-06T21:26:21.622Z,6.12
2023-03-06T21:28:48.825Z,6.20
2023-03-06T21:31:17.512Z,6.19
2023-03-06T21:33:45.262Z,6.11
2023-03-06T21:36:12.018Z,6.14
2023-03-06T21:38:39.148Z,6.21
2023-03-06T21:41:13.752Z,6.24
2023-03-06T21:43:41.329Z,6.22
2023-03-06T21:46:08.373Z,6.14
2023-03-06T21:48:35.434Z,6.08
2023-03-06T21:51:13.925Z,6.01
2023-03-06T21:53:44.857Z,5.95
2023-03-06T21:56:15.003Z,5.92
2023-03-06T21:58:42.347Z,5.87
2023-03-06T22:01:15.845Z,5.81
2023-03-06T22:03:42.795Z,5.79
2023-03-06T22:06:11.874Z,5.74
2023-03-06T22:08:39.641Z,5.70
2023-03-06T22:11:11.674Z,5.74
2023-03-06T22:13:38.689Z,5.72
2023-03-06T22:16:06.376Z,5.68
2023-03-06T22:18:34.188Z,5.70
2023-03-06T22:21:05.519Z,5.72
2023-03-06T22:23:32.295Z,5.76
2023-03-06T22:26:04.191Z,5.78
2023-03-06T22:28:31.517Z,5.80
2023-03-06T22:31:11.610Z,5.82
2023-03-06T22:33:38.454Z,5.85
2023-03-06T22:36:08.157Z,5.83
2023-03-06T22:38:37.156Z,5.85
2023-03-06T22:41:05.018Z,5.91
2023-03-06T22:43:32.334Z,5.87
2023-03-06T22:46:18.340Z,5.80
2023-03-06T22:48:45.345Z,5.75
2023-03-06T22:51:15.168Z,5.65
2023-03-06T22:53:42.655Z,5.57
2023-03-06T22:56:12.017Z,5.50
2023-03-06T22:58:40.320Z,5.47
2023-03-06T23:01:09.834Z,5.43
2023-03-06T23:03:37.855Z,5.42
2023-03-06T23:06:10.380Z,5.42
2023-03-06T23:08:37.657Z,5.45
2023-03-06T23:11:10.016Z,5.49
2023-03-06T23:13:57.292Z,5.42
2023-03-06T23:16:42.606Z,5.35
2023-03-06T23:19:27.915Z,5.25
2023-03-06T23:22:14.414Z,5.19
2023-03-06T23:25:00.286Z,5.24
2023-03-06T23:27:27.476Z,5.27
2023-03-06T23:29:59.037Z,5.27
2023-03-06T23:32:26.182Z,5.25
2023-03-06T23:34:53.036Z,5.18
2023-03-06T23:37:19.916Z,5.12
2023-03-06T23:39:47.000Z,5.05
2023-03-06T23:42:13.811Z,4.93
2023-03-06T23:44:40.612Z,4.89
2023-03-06T23:47:07.435Z,4.92
2023-03-06T23:49:34.358Z,4.95
2023-03-06T23:52:01.154Z,4.96
2023-03-06T23:54:27.937Z,5.00
2023-03-06T23:56:54.805Z,5.00
2023-03-06T23:59:21.593Z,4.95
